createdAt,value
2023-05-21T00:00:46.239Z,24.26
2023-05-21T00:01:46.230Z,24.28
2023-05-21T00:02:46.273Z,24.27
2023-05-21T00:03:46.346Z,24.27
2023-05-21T00:04:46.189Z,24.27
2023-05-21T00:05:46.220Z,24.28
2023-05-21T00:06:46.188Z,24.26
2023-05-21T00:07:46.177Z,24.30
2023-05-21T00:08:46.174Z,24.27
2023-05-21T00:09:46.171Z,24.26
2023-05-21T00:10:46.164Z,24.24
2023-05-21T00:11:46.172Z,24.27
2023-05-21T00:12:46.146Z,24.26
2023-05-21T00:13:46.145Z,24.27
2023-05-21T00:14:46.157Z,24.26
2023-05-21T00:15:46.133Z,24.27
2023-05-21T00:16:46.203Z,24.28
2023-05-21T00:17:46.192Z,24.28
2023-05-21T00:18:46.101Z,24.28
2023-05-21T00:19:46.093Z,24.26
2023-05-21T00:20:46.105Z,24.28
2023-05-21T00:21:46.069Z,24.26
2023-05-21T00:22:46.070Z,24.24
2023-05-21T00:23:46.068Z,24.28
2023-05-21T00:24:46.061Z,24.27
2023-05-21T00:25:46.056Z,24.27
2023-05-21T00:26:46.061Z,24.26
2023-05-21T00:27:46.115Z,24.27
2023-05-21T00:28:46.171Z,24.26
2023-05-21T00:29:46.231Z,24.26
2023-05-21T00:30:46.301Z,24.26
2023-05-21T00:31:46.411Z,24.24
2023-05-21T00:32:46.488Z,24.26
2023-05-21T00:33:46.500Z,24.26
2023-05-21T00:34:46.560Z,24.27
2023-05-21T00:35:46.620Z,24.24
2023-05-21T00:36:46.672Z,24.27
2023-05-21T00:37:46.737Z,24.24
2023-05-21T00:38:46.790Z,24.26
2023-05-21T00:39:46.857Z,24.26
2023-05-21T00:40:46.943Z,24.23
2023-05-21T00:41:46.978Z,24.26
2023-05-21T00:42:47.047Z,24.26
2023-05-21T00:43:47.102Z,24.26
2023-05-21T00:44:47.156Z,24.26
2023-05-21T00:45:47.273Z,24.26
2023-05-21T00:46:47.286Z,24.26
2023-05-21T00:47:47.418Z,24.23
2023-05-21T00:48:47.396Z,24.23
2023-05-21T00:49:47.466Z,24.27
2023-05-21T00:50:47.523Z,24.24
2023-05-21T00:51:47.595Z,24.23
2023-05-21T00:52:47.650Z,24.23
2023-05-21T00:53:47.716Z,24.23
2023-05-21T00:54:47.772Z,24.24
2023-05-21T00:55:47.828Z,24.24
2023-05-21T00:56:47.886Z,24.23
2023-05-21T00:57:47.958Z,24.21
2023-05-21T00:58:48.024Z,24.20
2023-05-21T00:59:48.076Z,24.23
2023-05-21T01:00:48.138Z,24.24
2023-05-21T01:01:48.228Z,24.24
2023-05-21T01:02:48.398Z,24.24
2023-05-21T01:03:48.357Z,24.23
2023-05-21T01:04:48.375Z,24.24
2023-05-21T01:05:48.429Z,24.21
2023-05-21T01:06:48.484Z,24.24
2023-05-21T01:07:48.544Z,24.24
2023-05-21T01:08:48.587Z,24.23
2023-05-21T01:09:48.650Z,24.21
2023-05-21T01:10:48.726Z,24.23
2023-05-21T01:11:48.781Z,24.21
2023-05-21T01:12:48.854Z,24.20
2023-05-21T01:13:48.898Z,24.23
2023-05-21T01:14:48.965Z,24.23
2023-05-21T01:15:49.021Z,24.21
2023-05-21T01:16:49.112Z,24.21
2023-05-21T01:17:49.199Z,24.21
2023-05-21T01:18:49.257Z,24.24
2023-05-21T01:19:49.387Z,24.21
2023-05-21T01:20:49.384Z,24.21
2023-05-21T01:21:49.420Z,24.21
2023-05-21T01:22:49.457Z,24.21
2023-05-21T01:23:49.525Z,24.21
2023-05-21T01:24:49.602Z,24.21
2023-05-21T01:25:49.659Z,24.21
2023-05-21T01:26:49.703Z,24.19
2023-05-21T01:27:49.770Z,24.19
2023-05-21T01:28:49.810Z,24.21
2023-05-21T01:29:49.863Z,24.23
2023-05-21T01:30:49.978Z,24.20
2023-05-21T01:31:49.997Z,24.23
2023-05-21T01:32:50.156Z,24.19
2023-05-21T01:33:50.121Z,24.20
2023-05-21T01:34:50.152Z,24.20
2023-05-21T01:35:50.204Z,24.20
2023-05-21T01:36:50.239Z,24.20
2023-05-21T01:37:50.293Z,24.20
2023-05-21T01:38:50.336Z,24.17
2023-05-21T01:39:50.405Z,24.20
2023-05-21T01:40:50.480Z,24.19
2023-05-21T01:41:50.536Z,24.20
2023-05-21T01:42:50.590Z,24.20
2023-05-21T01:43:50.640Z,24.20
2023-05-21T01:44:50.722Z,24.19
2023-05-21T01:45:50.757Z,24.17
2023-05-21T01:46:50.918Z,24.19
2023-05-21T01:47:50.866Z,24.19
2023-05-21T01:48:50.936Z,24.17
2023-05-21T01:49:50.986Z,24.17
2023-05-21T01:50:51.056Z,24.20
2023-05-21T01:51:51.106Z,24.19
2023-05-21T01:52:51.172Z,24.17
2023-05-21T01:54:36.677Z,24.17
2023-05-21T01:55:36.801Z,24.17
2023-05-21T01:56:36.655Z,24.19
2023-05-21T01:57:36.664Z,24.20
2023-05-21T01:58:36.709Z,24.19
2023-05-21T01:59:36.757Z,24.17
2023-05-21T02:00:36.827Z,24.17
2023-05-21T02:01:36.935Z,24.17
2023-05-21T02:02:37.028Z,24.14
2023-05-21T02:03:37.204Z,24.17
2023-05-21T02:04:37.081Z,24.17
2023-05-21T02:05:37.405Z,24.17
2023-05-21T02:06:37.200Z,24.14
2023-05-21T02:07:37.250Z,24.17
2023-05-21T02:08:37.291Z,24.16
2023-05-21T02:09:37.356Z,24.16
2023-05-21T02:10:37.414Z,24.16
2023-05-21T02:11:37.464Z,24.17
2023-05-21T02:12:37.547Z,24.17
2023-05-21T02:13:37.579Z,24.14
2023-05-21T02:14:37.651Z,24.17
2023-05-21T02:15:37.794Z,24.17
2023-05-21T02:16:37.910Z,24.17
2023-05-21T02:17:37.826Z,24.13
2023-05-21T02:18:37.859Z,24.17
2023-05-21T02:19:37.906Z,24.17
2023-05-21T02:20:37.959Z,24.14
2023-05-21T02:21:37.994Z,24.16
2023-05-21T02:22:38.036Z,24.16
2023-05-21T02:23:38.099Z,24.14
2023-05-21T02:24:38.114Z,24.16
2023-05-21T02:25:38.469Z,24.16
2023-05-21T02:26:38.180Z,24.16
2023-05-21T02:27:38.236Z,24.16
2023-05-21T02:28:38.278Z,24.14
2023-05-21T02:29:38.308Z,24.16
2023-05-21T02:30:38.356Z,24.16
2023-05-21T02:31:38.402Z,24.16
2023-05-21T02:32:38.532Z,24.14
2023-05-21T02:33:38.511Z,24.14
2023-05-21T02:34:38.552Z,24.13
2023-05-21T02:35:38.734Z,24.14
2023-05-21T02:36:38.650Z,24.13
2023-05-21T02:37:38.681Z,24.13
2023-05-21T02:38:38.702Z,24.13
2023-05-21T02:39:38.754Z,24.13
2023-05-21T02:40:38.788Z,24.16
2023-05-21T02:41:38.827Z,24.13
2023-05-21T02:42:38.883Z,24.13
2023-05-21T02:43:38.921Z,24.14
2023-05-21T02:44:38.948Z,24.14
2023-05-21T02:45:39.226Z,24.14
2023-05-21T02:46:38.996Z,24.13
2023-05-21T02:47:39.167Z,24.13
2023-05-21T02:48:39.034Z,24.13
2023-05-21T02:49:39.083Z,24.12
2023-05-21T02:50:39.130Z,24.13
2023-05-21T02:51:39.161Z,24.12
2023-05-21T02:52:39.209Z,24.13
2023-05-21T02:53:39.245Z,24.13
2023-05-21T02:54:39.282Z,24.13
2023-05-21T02:55:39.444Z,24.12
2023-05-21T02:56:39.334Z,24.13
2023-05-21T02:57:39.352Z,24.13
2023-05-21T02:58:39.424Z,24.13
2023-05-21T02:59:39.433Z,24.12
2023-05-21T03:00:39.460Z,24.12
2023-05-21T03:01:39.511Z,24.10
2023-05-21T03:02:39.637Z,24.10
2023-05-21T03:03:39.637Z,24.12
2023-05-21T03:04:39.635Z,24.12
2023-05-21T03:05:39.691Z,24.10
2023-05-21T03:06:39.721Z,24.12
2023-05-21T03:07:39.767Z,24.13
2023-05-21T03:08:39.812Z,24.12
2023-05-21T03:09:39.876Z,24.10
2023-05-21T03:10:39.920Z,24.10
2023-05-21T03:11:39.957Z,24.12
2023-05-21T03:12:39.979Z,24.12
2023-05-21T03:13:40.085Z,24.12
2023-05-21T03:14:40.050Z,24.10
2023-05-21T03:15:40.064Z,24.12
2023-05-21T03:16:40.137Z,24.10
2023-05-21T03:17:40.193Z,24.10
2023-05-21T03:18:40.164Z,24.10
2023-05-21T03:19:40.191Z,24.09
2023-05-21T03:20:40.230Z,24.12
2023-05-21T03:21:40.265Z,24.10
2023-05-21T03:22:40.312Z,24.07
2023-05-21T03:23:40.325Z,24.09
2023-05-21T03:24:40.345Z,24.09
2023-05-21T03:25:40.383Z,24.09
2023-05-21T03:26:40.416Z,24.09
2023-05-21T03:27:40.497Z,24.09
2023-05-21T03:28:40.483Z,24.10
2023-05-21T03:29:40.526Z,24.10
2023-05-21T03:30:40.569Z,24.10
2023-05-21T03:31:40.644Z,24.09
2023-05-21T03:32:40.644Z,24.12
2023-05-21T03:33:40.686Z,24.10
2023-05-21T03:34:40.747Z,24.07
2023-05-21T03:35:40.772Z,24.09
2023-05-21T03:36:40.808Z,24.06
2023-05-21T03:37:40.825Z,24.09
2023-05-21T03:38:40.851Z,24.09
2023-05-21T03:39:40.866Z,24.09
2023-05-21T03:40:40.979Z,24.09
2023-05-21T03:41:40.898Z,24.07
2023-05-21T03:42:40.912Z,24.09
2023-05-21T03:43:40.929Z,24.07
2023-05-21T03:44:40.958Z,24.07
2023-05-21T03:45:42.787Z,24.10
2023-05-21T03:46:41.022Z,24.10
2023-05-21T03:47:41.029Z,24.09
2023-05-21T03:48:41.002Z,24.06
2023-05-21T03:49:40.978Z,24.09
2023-05-21T03:50:40.971Z,24.10
2023-05-21T03:51:40.961Z,24.09
2023-05-21T03:52:40.965Z,24.09
2023-05-21T03:53:40.955Z,24.12
2023-05-21T03:54:40.944Z,24.10
2023-05-21T03:55:40.945Z,24.10
2023-05-21T03:56:40.945Z,24.12
2023-05-21T03:57:40.919Z,24.10
2023-05-21T03:58:40.904Z,24.10
2023-05-21T03:59:40.913Z,24.12
2023-05-21T04:00:40.917Z,24.12
2023-05-21T04:01:40.918Z,24.10
2023-05-21T04:02:40.994Z,24.10
2023-05-21T04:03:41.278Z,24.12
2023-05-21T04:04:40.917Z,24.12
2023-05-21T04:05:40.869Z,24.12
2023-05-21T04:06:40.860Z,24.13
2023-05-21T04:07:40.875Z,24.12
2023-05-21T04:08:40.852Z,24.12
2023-05-21T04:09:40.833Z,24.13
2023-05-21T04:10:40.825Z,24.13
2023-05-21T04:11:40.880Z,24.13
2023-05-21T04:12:40.840Z,24.14
2023-05-21T04:13:40.809Z,24.14
2023-05-21T04:14:40.801Z,24.14
2023-05-21T04:15:40.819Z,24.14
2023-05-21T04:16:40.800Z,24.17
2023-05-21T04:17:40.839Z,24.16
2023-05-21T04:18:41.117Z,24.16
2023-05-21T04:19:40.802Z,24.17
2023-05-21T04:20:40.786Z,24.17
2023-05-21T04:21:40.756Z,24.20
2023-05-21T04:22:40.746Z,24.17
2023-05-21T04:23:40.738Z,24.20
2023-05-21T04:24:40.738Z,24.19
2023-05-21T04:25:40.729Z,24.17
2023-05-21T04:26:40.717Z,24.20
2023-05-21T04:27:40.729Z,24.19
2023-05-21T04:28:40.707Z,24.17
2023-05-21T04:29:40.704Z,24.19
2023-05-21T04:30:40.700Z,24.21
2023-05-21T04:31:40.713Z,24.21
2023-05-21T04:32:40.735Z,24.20
2023-05-21T04:33:40.675Z,24.23
2023-05-21T04:34:40.670Z,24.24
2023-05-21T04:35:40.670Z,24.23
2023-05-21T04:36:40.714Z,24.24
2023-05-21T04:37:40.701Z,24.26
2023-05-21T04:38:40.728Z,24.26
2023-05-21T04:39:40.788Z,24.27
2023-05-21T04:40:40.854Z,24.27
2023-05-21T04:41:40.886Z,24.27
2023-05-21T04:42:40.944Z,24.28
2023-05-21T04:43:41.008Z,24.31
2023-05-21T04:44:41.045Z,24.31
2023-05-21T04:45:41.116Z,24.33
2023-05-21T04:46:42.000Z,24.36
2023-05-21T04:47:41.257Z,24.37
2023-05-21T04:48:41.296Z,24.38
2023-05-21T04:49:41.340Z,24.40
2023-05-21T04:50:41.477Z,24.41
2023-05-21T04:51:41.467Z,24.50
2023-05-21T04:52:41.539Z,24.54
2023-05-21T04:53:41.579Z,24.63
2023-05-21T04:54:41.628Z,24.75
2023-05-21T04:55:41.688Z,24.90
2023-05-21T04:56:41.709Z,25.10
2023-05-21T04:57:41.740Z,25.29
2023-05-21T04:58:41.746Z,25.48
2023-05-21T04:59:41.722Z,25.65
2023-05-21T05:00:41.836Z,25.82
2023-05-21T05:01:41.826Z,25.97
2023-05-21T05:02:41.909Z,26.02
2023-05-21T05:03:41.932Z,25.99
2023-05-21T05:04:41.956Z,25.93
2023-05-21T05:05:42.028Z,25.90
2023-05-21T05:06:42.029Z,25.83
2023-05-21T05:07:42.064Z,25.80
2023-05-21T05:08:42.136Z,25.75
2023-05-21T05:09:42.201Z,25.69
2023-05-21T05:10:42.247Z,25.69
2023-05-21T05:11:42.250Z,25.65
2023-05-21T05:12:42.245Z,25.61
2023-05-21T05:13:42.254Z,25.58
2023-05-21T05:14:42.240Z,25.53
2023-05-21T05:15:42.240Z,25.52
2023-05-21T05:16:42.259Z,25.52
2023-05-21T05:17:42.340Z,25.45
2023-05-21T05:18:42.291Z,25.44
2023-05-21T05:19:42.247Z,25.42
2023-05-21T05:20:42.255Z,25.38
2023-05-21T05:21:42.273Z,25.39
2023-05-21T05:22:42.264Z,25.39
2023-05-21T05:23:42.261Z,25.39
2023-05-21T05:24:42.269Z,25.36
2023-05-21T05:25:42.275Z,25.36
2023-05-21T05:26:42.287Z,25.36
2023-05-21T05:27:42.290Z,25.36
2023-05-21T05:28:42.304Z,25.36
2023-05-21T05:29:42.313Z,25.38
2023-05-21T05:30:42.325Z,25.38
2023-05-21T05:31:42.310Z,25.35
2023-05-21T05:32:42.356Z,25.38
2023-05-21T05:33:42.335Z,25.38
2023-05-21T05:34:42.320Z,25.36
2023-05-21T05:35:42.335Z,25.36
2023-05-21T05:36:42.325Z,25.38
2023-05-21T05:37:42.335Z,25.36
2023-05-21T05:38:42.328Z,25.36
2023-05-21T05:39:42.330Z,25.36
2023-05-21T05:40:42.339Z,25.35
2023-05-21T05:41:42.336Z,25.36
2023-05-21T05:42:42.327Z,25.36
2023-05-21T05:43:42.330Z,25.38
2023-05-21T05:44:42.340Z,25.41
2023-05-21T05:45:42.344Z,25.39
2023-05-21T05:46:42.435Z,25.41
2023-05-21T05:47:42.428Z,25.44
2023-05-21T05:48:42.342Z,25.45
2023-05-21T05:49:42.335Z,25.45
2023-05-21T05:50:42.312Z,25.46
2023-05-21T05:51:42.312Z,25.48
2023-05-21T05:52:42.308Z,25.46
2023-05-21T05:53:42.302Z,25.49
2023-05-21T05:54:42.310Z,25.50
2023-05-21T05:55:42.294Z,25.50
2023-05-21T05:56:42.319Z,25.52
2023-05-21T05:57:44.843Z,25.52
2023-05-21T05:58:42.325Z,25.56
2023-05-21T05:59:42.317Z,25.52
2023-05-21T06:00:42.319Z,25.53
2023-05-21T06:01:42.315Z,25.58
2023-05-21T06:02:42.405Z,25.59
2023-05-21T06:03:42.468Z,25.59
2023-05-21T06:04:42.293Z,25.62
2023-05-21T06:05:42.290Z,25.62
2023-05-21T06:06:42.278Z,25.66
2023-05-21T06:07:42.271Z,25.66
2023-05-21T06:08:42.271Z,25.69
2023-05-21T06:09:42.255Z,25.66
2023-05-21T06:10:42.242Z,25.69
2023-05-21T06:11:42.229Z,25.68
2023-05-21T06:12:42.231Z,25.69
2023-05-21T06:13:42.228Z,25.69
2023-05-21T06:14:44.422Z,25.68
2023-05-21T06:15:42.242Z,25.73
2023-05-21T06:16:42.217Z,25.72
2023-05-21T06:17:42.247Z,25.75
2023-05-21T06:18:42.232Z,25.78
2023-05-21T06:19:42.170Z,25.79
2023-05-21T06:20:42.180Z,25.83
2023-05-21T06:21:42.173Z,25.85
2023-05-21T06:22:42.154Z,25.86
2023-05-21T06:23:42.153Z,25.88
2023-05-21T06:24:42.148Z,25.92
2023-05-21T06:25:42.143Z,25.95
2023-05-21T06:26:42.156Z,25.97
2023-05-21T06:27:42.115Z,25.96
2023-05-21T06:28:42.105Z,26.02
2023-05-21T06:29:42.093Z,26.04
2023-05-21T06:30:42.116Z,26.07
2023-05-21T06:31:42.093Z,26.09
2023-05-21T06:32:42.155Z,26.13
2023-05-21T06:33:42.166Z,26.16
2023-05-21T06:34:42.082Z,26.17
2023-05-21T06:35:42.066Z,26.19
2023-05-21T06:36:42.077Z,26.20
2023-05-21T06:37:42.069Z,26.20
2023-05-21T06:38:42.036Z,26.22
2023-05-21T06:39:42.048Z,26.22
2023-05-21T06:40:42.042Z,26.20
2023-05-21T06:41:42.015Z,26.23
2023-05-21T06:42:42.011Z,26.24
2023-05-21T06:43:42.008Z,26.23
2023-05-21T06:44:42.009Z,26.22
2023-05-21T06:45:42.038Z,26.22
2023-05-21T06:46:41.990Z,26.22
2023-05-21T06:47:42.028Z,26.22
2023-05-21T06:48:41.976Z,26.22
2023-05-21T06:49:41.978Z,26.19
2023-05-21T06:50:41.994Z,26.16
2023-05-21T06:51:41.952Z,26.17
2023-05-21T06:52:41.974Z,26.17
2023-05-21T06:53:41.978Z,26.16
2023-05-21T06:54:41.933Z,26.19
2023-05-21T06:55:43.012Z,26.17
2023-05-21T06:56:41.921Z,26.19
2023-05-21T06:57:41.929Z,26.19
2023-05-21T06:58:41.934Z,26.19
2023-05-21T06:59:41.909Z,26.19
2023-05-21T07:00:41.902Z,26.17
2023-05-21T07:01:41.981Z,26.17
2023-05-21T07:02:42.022Z,26.19
2023-05-21T07:03:41.977Z,26.17
2023-05-21T07:04:41.872Z,26.15
2023-05-21T07:05:41.875Z,26.16
2023-05-21T07:06:41.863Z,26.16
2023-05-21T07:07:41.844Z,26.17
2023-05-21T07:08:41.843Z,26.12
2023-05-21T07:09:41.870Z,26.15
2023-05-21T07:10:41.887Z,26.17
2023-05-21T07:11:41.925Z,26.13
2023-05-21T07:12:41.944Z,26.16
2023-05-21T07:13:41.977Z,26.16
2023-05-21T07:14:42.014Z,26.16
2023-05-21T07:15:42.028Z,26.16
2023-05-21T07:16:42.102Z,26.15
2023-05-21T07:17:42.128Z,26.16
2023-05-21T07:18:42.138Z,26.16
2023-05-21T07:19:42.148Z,26.15
2023-05-21T07:20:42.171Z,26.16
2023-05-21T07:21:42.187Z,26.17
2023-05-21T07:22:42.201Z,26.17
2023-05-21T07:23:42.220Z,26.20
2023-05-21T07:24:42.260Z,26.19
2023-05-21T07:25:42.297Z,26.22
2023-05-21T07:26:42.291Z,26.20
2023-05-21T07:27:42.300Z,26.22
2023-05-21T07:28:42.323Z,26.23
2023-05-21T07:29:42.335Z,26.26
2023-05-21T07:30:42.385Z,26.24
2023-05-21T07:31:42.398Z,26.29
2023-05-21T07:32:42.435Z,26.29
2023-05-21T07:33:42.412Z,26.30
2023-05-21T07:34:42.426Z,26.30
2023-05-21T07:35:42.459Z,26.32
2023-05-21T07:36:42.465Z,26.33
2023-05-21T07:37:42.518Z,26.34
2023-05-21T07:38:42.502Z,26.34
2023-05-21T07:39:42.554Z,26.37
2023-05-21T07:40:42.580Z,26.36
2023-05-21T07:41:42.588Z,26.33
2023-05-21T07:42:42.608Z,26.39
2023-05-21T07:43:42.636Z,26.42
2023-05-21T07:44:42.653Z,26.43
2023-05-21T07:45:42.687Z,26.46
2023-05-21T07:46:42.779Z,26.44
2023-05-21T07:47:42.766Z,26.46
2023-05-21T07:48:42.740Z,26.46
2023-05-21T07:49:42.768Z,26.46
2023-05-21T07:50:42.801Z,26.50
2023-05-21T07:51:42.799Z,26.53
2023-05-21T07:52:42.830Z,26.48
2023-05-21T07:53:42.826Z,26.54
2023-05-21T07:54:42.829Z,26.56
2023-05-21T07:55:42.866Z,26.57
2023-05-21T07:56:42.878Z,26.61
2023-05-21T07:57:42.865Z,26.61
2023-05-21T07:58:42.863Z,26.57
2023-05-21T07:59:42.873Z,26.64
2023-05-21T08:00:42.883Z,26.64
2023-05-21T08:01:42.878Z,26.64
2023-05-21T08:02:42.970Z,26.66
2023-05-21T08:03:43.000Z,26.67
2023-05-21T08:04:42.925Z,26.68
2023-05-21T08:05:42.898Z,26.68
2023-05-21T08:06:42.890Z,26.71
2023-05-21T08:07:42.893Z,26.73
2023-05-21T08:08:42.914Z,26.70
2023-05-21T08:09:42.884Z,26.71
2023-05-21T08:10:42.889Z,26.73
2023-05-21T08:11:42.918Z,26.74
2023-05-21T08:12:42.869Z,26.74
2023-05-21T08:13:42.882Z,26.73
2023-05-21T08:14:42.856Z,26.77
2023-05-21T08:15:42.893Z,26.77
2023-05-21T08:16:42.948Z,26.76
2023-05-21T08:17:42.931Z,26.74
2023-05-21T08:18:42.905Z,26.76
2023-05-21T08:19:42.857Z,26.74
2023-05-21T08:20:42.861Z,26.74
2023-05-21T08:21:42.843Z,26.73
2023-05-21T08:22:42.840Z,26.74
2023-05-21T08:23:42.834Z,26.74
2023-05-21T08:24:42.834Z,26.76
2023-05-21T08:25:42.874Z,26.74
2023-05-21T08:26:42.832Z,26.73
2023-05-21T08:27:42.845Z,26.76
2023-05-21T08:28:42.824Z,26.74
2023-05-21T08:29:42.844Z,26.74
2023-05-21T08:30:42.822Z,26.74
2023-05-21T08:31:42.876Z,26.74
2023-05-21T08:32:42.855Z,26.74
2023-05-21T08:33:42.804Z,26.71
2023-05-21T08:34:42.827Z,26.74
2023-05-21T08:35:42.814Z,26.74
2023-05-21T08:36:42.784Z,26.76
2023-05-21T08:37:42.788Z,26.73
2023-05-21T08:38:42.790Z,26.74
2023-05-21T08:39:42.787Z,26.76
2023-05-21T08:40:42.799Z,26.74
2023-05-21T08:41:42.808Z,26.74
2023-05-21T08:42:42.842Z,26.77
2023-05-21T08:43:42.841Z,26.74
2023-05-21T08:44:42.860Z,26.76
2023-05-21T08:45:42.919Z,26.76
2023-05-21T08:46:42.923Z,26.78
2023-05-21T08:47:42.933Z,26.77
2023-05-21T08:48:42.915Z,26.78
2023-05-21T08:49:42.923Z,26.77
2023-05-21T08:50:42.930Z,26.73
2023-05-21T08:51:42.993Z,26.76
2023-05-21T08:52:42.976Z,26.77
2023-05-21T08:53:42.981Z,26.77
2023-05-21T08:54:42.966Z,26.77
2023-05-21T08:55:42.982Z,26.77
2023-05-21T08:56:42.979Z,26.77
2023-05-21T08:57:42.985Z,26.77
2023-05-21T08:58:43.001Z,26.78
2023-05-21T08:59:43.032Z,26.76
2023-05-21T09:00:43.053Z,26.78
2023-05-21T09:01:43.116Z,26.81
2023-05-21T09:02:43.165Z,26.80
2023-05-21T09:03:43.196Z,26.80
2023-05-21T09:04:43.356Z,26.78
2023-05-21T09:05:43.193Z,26.77
2023-05-21T09:06:43.170Z,26.78
2023-05-21T09:07:43.163Z,26.78
2023-05-21T09:08:43.218Z,26.76
2023-05-21T09:09:43.213Z,26.76
2023-05-21T09:10:43.215Z,26.74
2023-05-21T09:11:43.220Z,26.77
2023-05-21T09:12:43.229Z,26.73
2023-05-21T09:13:43.229Z,26.73
2023-05-21T09:14:43.210Z,26.76
2023-05-21T09:15:43.232Z,26.74
2023-05-21T09:16:43.227Z,26.71
2023-05-21T09:17:43.259Z,26.71
2023-05-21T09:18:43.237Z,26.71
2023-05-21T09:19:43.239Z,26.70
2023-05-21T09:20:43.201Z,26.70
2023-05-21T09:21:43.230Z,26.73
2023-05-21T09:22:43.232Z,26.68
2023-05-21T09:23:43.181Z,26.68
2023-05-21T09:24:43.183Z,26.68
2023-05-21T09:25:43.168Z,26.67
2023-05-21T09:26:43.157Z,26.67
2023-05-21T09:27:43.170Z,26.67
2023-05-21T09:28:43.166Z,26.66
2023-05-21T09:29:43.150Z,26.66
2023-05-21T09:30:43.156Z,26.68
2023-05-21T09:31:43.161Z,26.66
2023-05-21T09:32:43.193Z,26.66
2023-05-21T09:33:43.141Z,26.67
2023-05-21T09:34:43.144Z,26.64
2023-05-21T09:35:43.147Z,26.67
2023-05-21T09:36:43.172Z,26.64
2023-05-21T09:37:43.154Z,26.64
2023-05-21T09:38:43.151Z,26.64
2023-05-21T09:39:43.126Z,26.64
2023-05-21T09:40:43.145Z,26.66
2023-05-21T09:41:43.134Z,26.64
2023-05-21T09:42:43.120Z,26.63
2023-05-21T09:43:43.120Z,26.64
2023-05-21T09:44:43.129Z,26.63
2023-05-21T09:45:43.093Z,26.64
2023-05-21T09:46:43.173Z,26.64
2023-05-21T09:47:43.142Z,26.61
2023-05-21T09:48:43.138Z,26.63
2023-05-21T09:49:43.127Z,26.63
2023-05-21T09:50:43.092Z,26.64
2023-05-21T09:51:43.093Z,26.66
2023-05-21T09:52:43.095Z,26.63
2023-05-21T09:53:43.077Z,26.63
2023-05-21T09:54:43.092Z,26.64
2023-05-21T09:55:43.077Z,26.61
2023-05-21T09:56:43.076Z,26.61
2023-05-21T09:57:43.069Z,26.63
2023-05-21T09:58:43.061Z,26.61
2023-05-21T09:59:43.049Z,26.61
2023-05-21T10:00:43.058Z,26.61
2023-05-21T10:01:43.079Z,26.61
2023-05-21T10:02:43.128Z,26.63
2023-05-21T10:03:43.122Z,26.60
2023-05-21T10:04:43.131Z,26.60
2023-05-21T10:05:43.078Z,26.61
2023-05-21T10:06:43.059Z,26.60
2023-05-21T10:07:43.049Z,26.58
2023-05-21T10:08:43.066Z,26.58
2023-05-21T10:09:43.049Z,26.57
2023-05-21T10:10:43.054Z,26.58
2023-05-21T10:11:43.062Z,26.58
2023-05-21T10:12:43.053Z,26.60
2023-05-21T10:13:43.047Z,26.57
2023-05-21T10:14:43.055Z,26.56
2023-05-21T10:15:43.059Z,26.54
2023-05-21T10:16:43.125Z,26.54
2023-05-21T10:17:43.093Z,26.56
2023-05-21T10:18:43.110Z,26.51
2023-05-21T10:19:43.066Z,26.53
2023-05-21T10:20:43.073Z,26.56
2023-05-21T10:21:43.092Z,26.53
2023-05-21T10:22:43.066Z,26.53
2023-05-21T10:23:43.068Z,26.53
2023-05-21T10:24:43.083Z,26.51
2023-05-21T10:25:43.074Z,26.50
2023-05-21T10:26:43.083Z,26.51
2023-05-21T10:27:43.083Z,26.48
2023-05-21T10:28:43.093Z,26.47
2023-05-21T10:29:43.085Z,26.46
2023-05-21T10:30:43.090Z,26.47
2023-05-21T10:31:43.162Z,26.48
2023-05-21T10:32:43.342Z,26.47
2023-05-21T10:33:43.114Z,26.47
2023-05-21T10:34:43.109Z,26.48
2023-05-21T10:35:43.122Z,26.47
2023-05-21T10:36:43.126Z,26.47
2023-05-21T10:37:43.178Z,26.46
2023-05-21T10:38:43.143Z,26.44
2023-05-21T10:39:43.138Z,26.43
2023-05-21T10:40:43.148Z,26.44
2023-05-21T10:41:43.204Z,26.42
2023-05-21T10:42:43.181Z,26.42
2023-05-21T10:43:43.180Z,26.40
2023-05-21T10:44:43.212Z,26.42
2023-05-21T10:45:43.264Z,26.44
2023-05-21T10:46:43.216Z,26.42
2023-05-21T10:47:43.252Z,26.42
2023-05-21T10:48:43.222Z,26.39
2023-05-21T10:49:43.215Z,26.40
2023-05-21T10:50:43.234Z,26.42
2023-05-21T10:51:43.257Z,26.39
2023-05-21T10:52:43.273Z,26.36
2023-05-21T10:53:43.278Z,26.39
2023-05-21T10:54:43.288Z,26.36
2023-05-21T10:55:43.296Z,26.37
2023-05-21T10:56:43.368Z,26.36
2023-05-21T10:57:43.336Z,26.37
2023-05-21T10:58:43.337Z,26.37
2023-05-21T10:59:43.388Z,26.36
2023-05-21T11:00:43.363Z,26.36
2023-05-21T11:01:43.418Z,26.36
2023-05-21T11:02:43.461Z,26.37
2023-05-21T11:03:43.474Z,26.36
2023-05-21T11:04:43.414Z,26.40
2023-05-21T11:05:43.418Z,26.39
2023-05-21T11:06:43.461Z,26.37
2023-05-21T11:07:43.442Z,26.36
2023-05-21T11:08:43.454Z,26.36
2023-05-21T11:09:43.494Z,26.34
2023-05-21T11:10:43.490Z,26.36
2023-05-21T11:11:43.546Z,26.33
2023-05-21T11:12:43.530Z,26.36
2023-05-21T11:13:43.539Z,26.33
2023-05-21T11:14:43.590Z,26.37
2023-05-21T11:15:43.566Z,26.34
2023-05-21T11:16:43.590Z,26.36
2023-05-21T11:17:43.647Z,26.36
2023-05-21T11:18:43.706Z,26.33
2023-05-21T11:19:43.747Z,26.34
2023-05-21T11:20:43.608Z,26.32
2023-05-21T11:21:43.621Z,26.32
2023-05-21T11:22:43.636Z,26.34
2023-05-21T11:23:43.649Z,26.34
2023-05-21T11:24:43.659Z,26.33
2023-05-21T11:25:43.665Z,26.34
2023-05-21T11:26:43.688Z,26.34
2023-05-21T11:27:43.694Z,26.34
2023-05-21T11:28:43.699Z,26.34
2023-05-21T11:29:43.688Z,26.36
2023-05-21T11:30:43.891Z,26.36
2023-05-21T11:31:43.852Z,26.34
2023-05-21T11:32:43.814Z,26.33
2023-05-21T11:33:43.746Z,26.36
2023-05-21T11:34:43.737Z,26.36
2023-05-21T11:35:43.749Z,26.34
2023-05-21T11:36:43.776Z,26.37
2023-05-21T11:37:43.774Z,26.36
2023-05-21T11:38:43.770Z,26.36
2023-05-21T11:39:43.793Z,26.36
2023-05-21T11:40:43.812Z,26.36
2023-05-21T11:41:43.824Z,26.34
2023-05-21T11:42:43.821Z,26.34
2023-05-21T11:43:43.831Z,26.34
2023-05-21T11:44:43.856Z,26.34
2023-05-21T11:45:43.864Z,26.34
2023-05-21T11:46:43.938Z,26.36
2023-05-21T11:47:43.908Z,26.34
2023-05-21T11:48:43.908Z,26.33
2023-05-21T11:49:43.931Z,26.34
2023-05-21T11:50:43.934Z,26.34
2023-05-21T11:51:44.014Z,26.33
2023-05-21T11:52:43.994Z,26.36
2023-05-21T11:53:44.361Z,26.34
2023-05-21T11:54:44.015Z,26.34
2023-05-21T11:55:43.997Z,26.34
2023-05-21T11:56:44.012Z,26.36
2023-05-21T11:57:44.026Z,26.34
2023-05-21T11:58:44.040Z,26.34
2023-05-21T11:59:44.044Z,26.36
2023-05-21T12:00:44.098Z,26.36
2023-05-21T12:01:44.069Z,26.34
2023-05-21T12:02:44.167Z,26.33
2023-05-21T12:03:44.226Z,26.36
2023-05-21T12:04:44.117Z,26.34
2023-05-21T12:05:44.160Z,26.33
2023-05-21T12:06:44.155Z,26.34
2023-05-21T12:07:44.168Z,26.32
2023-05-21T12:08:44.178Z,26.33
2023-05-21T12:09:44.192Z,26.32
2023-05-21T12:10:46.120Z,26.33
2023-05-21T12:11:44.250Z,26.30
2023-05-21T12:12:54.622Z,26.33
2023-05-21T12:13:45.295Z,26.32
2023-05-21T12:14:44.241Z,26.32
2023-05-21T12:15:44.237Z,26.27
2023-05-21T12:16:44.270Z,26.34
2023-05-21T12:17:44.223Z,26.30
2023-05-21T12:18:44.248Z,26.32
2023-05-21T12:19:44.204Z,26.29
2023-05-21T12:20:44.197Z,26.29
2023-05-21T12:21:44.204Z,26.32
2023-05-21T12:22:44.192Z,26.27
2023-05-21T12:23:44.178Z,26.26
2023-05-21T12:24:44.185Z,26.29
2023-05-21T12:25:44.162Z,26.29
2023-05-21T12:26:44.175Z,26.27
2023-05-21T12:27:44.155Z,26.27
2023-05-21T12:28:44.131Z,26.27
2023-05-21T12:29:44.124Z,26.27
2023-05-21T12:30:44.125Z,26.27
2023-05-21T12:31:44.157Z,26.27
2023-05-21T12:32:44.230Z,26.29
2023-05-21T12:33:44.102Z,26.29
2023-05-21T12:34:44.098Z,26.29
2023-05-21T12:35:44.135Z,26.27
2023-05-21T12:36:44.086Z,26.26
2023-05-21T12:37:44.069Z,26.26
2023-05-21T12:38:44.071Z,26.24
2023-05-21T12:39:44.123Z,26.24
2023-05-21T12:40:44.121Z,26.24
2023-05-21T12:41:44.164Z,26.26
2023-05-21T12:42:44.155Z,26.24
2023-05-21T12:43:44.176Z,26.22
2023-05-21T12:44:44.185Z,26.26
2023-05-21T12:45:44.310Z,26.20
2023-05-21T12:46:44.290Z,26.26
2023-05-21T12:47:44.269Z,26.23
2023-05-21T12:48:44.265Z,26.26
2023-05-21T12:49:44.295Z,26.24
2023-05-21T12:50:44.309Z,26.27
2023-05-21T12:51:44.325Z,26.24
2023-05-21T12:52:44.341Z,26.27
2023-05-21T12:53:44.366Z,26.27